createdAt,value
2022-10-22T00:00:31.260Z,1005.43
2022-10-22T00:01:31.247Z,1005.53
2022-10-22T00:02:31.303Z,1005.66
2022-10-22T00:03:31.230Z,1005.70
2022-10-22T00:04:34.506Z,1005.65
2022-10-22T00:05:31.207Z,1005.72
2022-10-22T00:06:31.201Z,1005.72
2022-10-22T00:07:31.205Z,1005.68
2022-10-22T00:08:31.230Z,1005.64
2022-10-22T00:09:31.163Z,1005.65
2022-10-22T00:10:31.147Z,1005.63
2022-10-22T00:11:31.143Z,1005.63
2022-10-22T00:12:31.134Z,1005.65
2022-10-22T00:13:31.125Z,1005.65
2022-10-22T00:14:31.106Z,1005.67
2022-10-22T00:15:31.100Z,1005.65
2022-10-22T00:16:31.085Z,1005.66
2022-10-22T00:17:31.071Z,1005.69
2022-10-22T00:18:31.059Z,1005.69
2022-10-22T00:19:31.048Z,1005.72
2022-10-22T00:20:31.042Z,1005.69
2022-10-22T00:21:31.027Z,1005.74
2022-10-22T00:22:31.013Z,1005.75
2022-10-22T00:23:31.025Z,1005.77
2022-10-22T00:24:30.992Z,1005.67
2022-10-22T00:25:30.984Z,1005.75
2022-10-22T00:26:30.971Z,1005.74
2022-10-22T00:27:30.958Z,1005.68
2022-10-22T00:28:30.947Z,1005.70
2022-10-22T00:29:30.938Z,1005.62
2022-10-22T00:30:30.931Z,1005.54
2022-10-22T00:31:30.913Z,1005.51
2022-10-22T00:32:30.910Z,1005.50
2022-10-22T00:33:30.891Z,1005.46
2022-10-22T00:34:30.881Z,1005.49
2022-10-22T00:35:30.873Z,1005.48
2022-10-22T00:36:30.857Z,1005.58
2022-10-22T00:37:30.847Z,1005.56
2022-10-22T00:38:30.839Z,1005.52
2022-10-22T00:39:30.855Z,1005.44
2022-10-22T00:40:30.815Z,1005.48
2022-10-22T00:41:30.806Z,1005.51
2022-10-22T00:42:30.789Z,1005.48
2022-10-22T00:43:30.780Z,1005.43
2022-10-22T00:44:30.767Z,1005.42
2022-10-22T00:45:30.760Z,1005.41
2022-10-22T00:46:30.746Z,1005.43
2022-10-22T00:47:30.734Z,1005.41
2022-10-22T00:48:30.726Z,1005.38
2022-10-22T00:49:30.720Z,1005.34
2022-10-22T00:50:30.729Z,1005.37
2022-10-22T00:51:30.690Z,1005.42
2022-10-22T00:52:30.679Z,1005.45
2022-10-22T00:53:30.669Z,1005.43
2022-10-22T00:54:30.655Z,1005.44
2022-10-22T00:55:30.670Z,1005.43
2022-10-22T00:56:30.640Z,1005.41
2022-10-22T00:57:30.624Z,1005.48
2022-10-22T00:58:30.617Z,1005.55
2022-10-22T00:59:30.701Z,1005.58
2022-10-22T01:00:30.656Z,1005.60
2022-10-22T01:01:30.578Z,1005.58
2022-10-22T01:02:30.570Z,1005.63
2022-10-22T01:03:30.557Z,1005.59
2022-10-22T01:04:30.545Z,1005.63
2022-10-22T01:05:30.534Z,1005.70
2022-10-22T01:06:30.522Z,1005.67
2022-10-22T01:07:30.514Z,1005.74
2022-10-22T01:08:30.569Z,1005.79
2022-10-22T01:09:30.491Z,1005.71
2022-10-22T01:10:30.483Z,1005.76
2022-10-22T01:11:30.489Z,1005.75
2022-10-22T01:12:30.455Z,1005.76
2022-10-22T01:13:30.456Z,1005.72
2022-10-22T01:14:30.434Z,1005.72
2022-10-22T01:15:30.423Z,1005.74
2022-10-22T01:16:30.413Z,1005.76
2022-10-22T01:17:30.402Z,1005.79
2022-10-22T01:18:30.391Z,1005.81
2022-10-22T01:19:30.384Z,1005.84
2022-10-22T01:20:30.377Z,1005.88
2022-10-22T01:21:30.357Z,1005.81
2022-10-22T01:22:30.344Z,1005.82
2022-10-22T01:23:30.334Z,1005.73
2022-10-22T01:24:30.326Z,1005.68
2022-10-22T01:25:30.312Z,1005.59
2022-10-22T01:26:30.303Z,1005.59
2022-10-22T01:27:30.319Z,1005.63
2022-10-22T01:28:30.277Z,1005.62
2022-10-22T01:29:30.272Z,1005.66
2022-10-22T01:30:30.254Z,1005.52
2022-10-22T01:31:30.244Z,1005.56
2022-10-22T01:32:30.237Z,1005.62
2022-10-22T01:33:30.224Z,1005.54
2022-10-22T01:34:30.213Z,1005.51
2022-10-22T01:35:30.279Z,1005.54
2022-10-22T01:36:30.195Z,1005.53
2022-10-22T01:37:30.177Z,1005.49
2022-10-22T01:38:30.166Z,1005.54
2022-10-22T01:39:30.153Z,1005.60
2022-10-22T01:40:30.145Z,1005.58
2022-10-22T01:41:30.138Z,1005.59
2022-10-22T01:42:30.122Z,1005.58
2022-10-22T01:43:30.150Z,1005.57
2022-10-22T01:44:30.154Z,1005.60
2022-10-22T01:45:30.084Z,1005.56
2022-10-22T01:46:30.075Z,1005.53
2022-10-22T01:47:30.064Z,1005.56
2022-10-22T01:48:30.051Z,1005.50
2022-10-22T01:49:30.039Z,1005.55
2022-10-22T01:50:30.027Z,1005.58
2022-10-22T01:51:30.024Z,1005.56
2022-10-22T01:52:30.009Z,1005.65
2022-10-22T01:53:29.996Z,1005.63
2022-10-22T01:54:29.986Z,1005.64
2022-10-22T01:55:29.973Z,1005.65
2022-10-22T01:56:29.974Z,1005.65
2022-10-22T01:57:29.951Z,1005.61
2022-10-22T01:58:29.940Z,1005.65
2022-10-22T01:59:29.961Z,1005.65
2022-10-22T02:00:29.966Z,1005.66
2022-10-22T02:01:29.915Z,1005.67
2022-10-22T02:02:29.894Z,1005.67
2022-10-22T02:03:29.891Z,1005.68
2022-10-22T02:04:29.874Z,1005.69
2022-10-22T02:05:29.868Z,1005.73
2022-10-22T02:06:29.859Z,1005.68
2022-10-22T02:07:29.839Z,1005.60
2022-10-22T02:08:29.830Z,1005.68
2022-10-22T02:09:29.819Z,1005.64
2022-10-22T02:10:29.811Z,1005.65
2022-10-22T02:11:29.794Z,1005.70
2022-10-22T02:12:29.784Z,1005.75
2022-10-22T02:13:29.772Z,1005.73
2022-10-22T02:14:31.785Z,1005.74
2022-10-22T02:15:29.753Z,1005.79
2022-10-22T02:16:29.738Z,1005.75
2022-10-22T02:17:29.728Z,1005.77
2022-10-22T02:18:29.714Z,1005.74
2022-10-22T02:19:29.709Z,1005.71
2022-10-22T02:20:29.694Z,1005.73
2022-10-22T02:21:29.683Z,1005.69
2022-10-22T02:22:29.673Z,1005.73
2022-10-22T02:23:29.660Z,1005.69
2022-10-22T02:24:29.648Z,1005.66
2022-10-22T02:25:29.640Z,1005.63
2022-10-22T02:26:29.635Z,1005.66
2022-10-22T02:27:29.616Z,1005.64
2022-10-22T02:28:29.610Z,1005.61
2022-10-22T02:29:29.592Z,1005.55
2022-10-22T02:30:29.608Z,1005.58
2022-10-22T02:31:29.586Z,1005.62
2022-10-22T02:32:29.565Z,1005.57
2022-10-22T02:33:29.548Z,1005.62
2022-10-22T02:34:29.535Z,1005.54
2022-10-22T02:35:29.531Z,1005.56
2022-10-22T02:36:29.513Z,1005.54
2022-10-22T02:37:29.516Z,1005.58
2022-10-22T02:38:29.489Z,1005.53
2022-10-22T02:39:29.482Z,1005.53
2022-10-22T02:40:29.473Z,1005.60
2022-10-22T02:41:29.455Z,1005.68
2022-10-22T02:42:29.448Z,1005.60
2022-10-22T02:43:29.434Z,1005.55
2022-10-22T02:44:29.420Z,1005.68
2022-10-22T02:45:29.415Z,1005.63
2022-10-22T02:46:29.421Z,1005.61
2022-10-22T02:47:29.390Z,1005.62
2022-10-22T02:48:29.382Z,1005.66
2022-10-22T02:49:29.364Z,1005.64
2022-10-22T02:50:29.354Z,1005.67
2022-10-22T02:51:29.343Z,1005.61
2022-10-22T02:52:29.346Z,1005.64
2022-10-22T02:53:29.320Z,1005.64
2022-10-22T02:54:29.377Z,1005.73
2022-10-22T02:55:29.297Z,1005.77
2022-10-22T02:56:29.288Z,1005.73
2022-10-22T02:57:29.275Z,1005.77
2022-10-22T02:58:29.269Z,1005.80
2022-10-22T02:59:29.295Z,1005.77
2022-10-22T03:00:29.319Z,1005.80
2022-10-22T03:01:29.229Z,1005.77
2022-10-22T03:02:29.243Z,1005.80
2022-10-22T03:03:29.213Z,1005.80
2022-10-22T03:04:29.197Z,1005.80
2022-10-22T03:05:29.186Z,1005.73
2022-10-22T03:06:29.179Z,1005.77
2022-10-22T03:07:29.163Z,1005.74
2022-10-22T03:08:29.152Z,1005.73
2022-10-22T03:09:29.142Z,1005.68
2022-10-22T03:10:29.135Z,1005.68
2022-10-22T03:11:29.118Z,1005.55
2022-10-22T03:12:29.114Z,1005.62
2022-10-22T03:13:29.097Z,1005.59
2022-10-22T03:14:29.089Z,1005.60
2022-10-22T03:15:29.076Z,1005.60
2022-10-22T03:16:29.266Z,1005.58
2022-10-22T03:17:29.058Z,1005.64
2022-10-22T03:18:29.065Z,1005.57
2022-10-22T03:19:29.026Z,1005.61
2022-10-22T03:20:29.023Z,1005.61
2022-10-22T03:21:29.007Z,1005.56
2022-10-22T03:22:28.993Z,1005.60
2022-10-22T03:23:28.990Z,1005.56
2022-10-22T03:24:28.998Z,1005.59
2022-10-22T03:25:28.961Z,1005.56
2022-10-22T03:26:28.949Z,1005.60
2022-10-22T03:27:28.938Z,1005.57
2022-10-22T03:28:28.929Z,1005.60
2022-10-22T03:29:28.930Z,1005.52
2022-10-22T03:30:28.914Z,1005.59
2022-10-22T03:31:28.894Z,1005.53
2022-10-22T03:32:28.890Z,1005.58
2022-10-22T03:33:28.871Z,1005.52
2022-10-22T03:34:28.884Z,1005.59
2022-10-22T03:35:28.861Z,1005.64
2022-10-22T03:36:28.844Z,1005.60
2022-10-22T03:37:28.829Z,1005.58
2022-10-22T03:38:28.824Z,1005.60
2022-10-22T03:39:28.807Z,1005.56
2022-10-22T03:40:28.794Z,1005.64
2022-10-22T03:41:28.780Z,1005.68
2022-10-22T03:42:28.773Z,1005.64
2022-10-22T03:43:28.759Z,1005.68
2022-10-22T03:44:28.749Z,1005.68
2022-10-22T03:45:28.819Z,1005.62
2022-10-22T03:46:28.728Z,1005.60
2022-10-22T03:47:28.718Z,1005.61
2022-10-22T03:48:28.704Z,1005.60
2022-10-22T03:49:28.820Z,1005.65
2022-10-22T03:50:28.701Z,1005.70
2022-10-22T03:51:28.672Z,1005.64
2022-10-22T03:52:28.656Z,1005.67
2022-10-22T03:53:28.646Z,1005.65
2022-10-22T03:54:28.754Z,1005.65
2022-10-22T03:55:28.622Z,1005.71
2022-10-22T03:56:28.610Z,1005.70
2022-10-22T03:57:28.601Z,1005.75
2022-10-22T03:58:28.589Z,1005.68
2022-10-22T03:59:28.576Z,1005.76
2022-10-22T04:00:28.567Z,1005.80
2022-10-22T04:01:28.600Z,1005.78
2022-10-22T04:02:28.544Z,1005.78
2022-10-22T04:03:28.534Z,1005.74
2022-10-22T04:04:28.519Z,1005.76
2022-10-22T04:05:28.508Z,1005.72
2022-10-22T04:06:28.522Z,1005.74
2022-10-22T04:07:28.487Z,1005.72
2022-10-22T04:08:28.477Z,1005.71
2022-10-22T04:09:28.464Z,1005.76
2022-10-22T04:10:28.454Z,1005.82
2022-10-22T04:11:28.441Z,1005.79
2022-10-22T04:12:28.437Z,1005.83
2022-10-22T04:13:28.419Z,1005.85
2022-10-22T04:14:28.409Z,1005.88
2022-10-22T04:15:28.402Z,1005.87
2022-10-22T04:16:29.999Z,1005.88
2022-10-22T04:17:28.374Z,1005.89
2022-10-22T04:18:28.364Z,1005.95
2022-10-22T04:19:28.358Z,1005.89
2022-10-22T04:20:28.341Z,1005.93
2022-10-22T04:21:28.330Z,1005.99
2022-10-22T04:22:28.343Z,1005.94
2022-10-22T04:23:28.328Z,1006.00
2022-10-22T04:24:28.295Z,1006.01
2022-10-22T04:25:28.289Z,1006.01
2022-10-22T04:26:28.271Z,1006.05
2022-10-22T04:27:28.262Z,1006.07
2022-10-22T04:28:28.250Z,1006.09
2022-10-22T04:29:28.241Z,1006.17
2022-10-22T04:30:28.232Z,1006.12
2022-10-22T04:31:28.216Z,1006.16
2022-10-22T04:32:28.207Z,1006.12
2022-10-22T04:33:28.192Z,1006.18
2022-10-22T04:34:28.181Z,1006.16
2022-10-22T04:35:28.171Z,1006.14
2022-10-22T04:36:28.159Z,1006.08
2022-10-22T04:37:28.151Z,1006.07
2022-10-22T04:38:28.158Z,1006.03
2022-10-22T04:39:28.129Z,1006.07
2022-10-22T04:40:28.118Z,1006.07
2022-10-22T04:41:28.103Z,1006.14
2022-10-22T04:42:28.090Z,1006.08
2022-10-22T04:43:28.084Z,1006.07
2022-10-22T04:44:28.078Z,1006.05
2022-10-22T04:45:28.055Z,1006.01
2022-10-22T04:46:28.049Z,1006.01
2022-10-22T04:47:28.039Z,1006.00
2022-10-22T04:48:28.021Z,1006.04
2022-10-22T04:49:28.016Z,1005.98
2022-10-22T04:50:28.005Z,1006.02
2022-10-22T04:51:27.992Z,1006.01
2022-10-22T04:52:27.979Z,1005.95
2022-10-22T04:53:27.965Z,1005.98
2022-10-22T04:54:32.171Z,1005.98
2022-10-22T04:55:28.054Z,1005.94
2022-10-22T04:56:27.934Z,1005.92
2022-10-22T04:57:27.920Z,1005.84
2022-10-22T04:58:27.909Z,1005.92
2022-10-22T04:59:27.901Z,1005.95
2022-10-22T05:00:27.885Z,1005.89
2022-10-22T05:01:27.979Z,1005.92
2022-10-22T05:02:27.863Z,1005.97
2022-10-22T05:03:27.852Z,1006.01
2022-10-22T05:04:27.840Z,1005.90
2022-10-22T05:05:27.831Z,1006.00
2022-10-22T05:06:27.826Z,1006.00
2022-10-22T05:07:27.811Z,1005.92
2022-10-22T05:08:27.801Z,1005.93
2022-10-22T05:09:27.784Z,1005.96
2022-10-22T05:10:27.781Z,1005.96
2022-10-22T05:11:27.761Z,1006.00
2022-10-22T05:12:27.750Z,1006.03
2022-10-22T05:13:27.739Z,1005.94
2022-10-22T05:14:27.734Z,1005.92
2022-10-22T05:15:27.716Z,1005.97
2022-10-22T05:16:27.707Z,1005.98
2022-10-22T05:17:27.694Z,1005.93
2022-10-22T05:18:27.685Z,1005.92
2022-10-22T05:19:27.669Z,1005.94
2022-10-22T05:20:27.658Z,1006.05
2022-10-22T05:21:29.657Z,1006.01
2022-10-22T05:22:27.636Z,1006.04
2022-10-22T05:23:27.630Z,1006.01
2022-10-22T05:24:27.613Z,1006.05
2022-10-22T05:25:27.600Z,1006.06
2022-10-22T05:26:27.612Z,1006.06
2022-10-22T05:27:27.583Z,1006.09
2022-10-22T05:28:27.574Z,1006.12
2022-10-22T05:29:27.555Z,1006.07
2022-10-22T05:30:27.544Z,1006.10
2022-10-22T05:31:27.535Z,1006.10
2022-10-22T05:32:29.522Z,1006.10
2022-10-22T05:33:27.511Z,1006.05
2022-10-22T05:34:27.506Z,1006.11
2022-10-22T05:35:27.491Z,1006.05
2022-10-22T05:36:27.475Z,1006.08
2022-10-22T05:37:29.465Z,1006.04
2022-10-22T05:38:29.454Z,1006.08
2022-10-22T05:39:27.442Z,1006.10
2022-10-22T05:40:31.039Z,1006.07
2022-10-22T05:41:27.418Z,1006.07
2022-10-22T05:42:27.438Z,1006.07
2022-10-22T05:43:27.397Z,1006.04
2022-10-22T05:44:29.389Z,1006.09
2022-10-22T05:45:27.373Z,1006.09
2022-10-22T05:46:27.363Z,1006.16
2022-10-22T05:47:27.358Z,1006.18
2022-10-22T05:48:27.372Z,1006.13
2022-10-22T05:49:27.334Z,1006.16
2022-10-22T05:50:29.317Z,1006.22
2022-10-22T05:51:29.306Z,1006.15
2022-10-22T05:52:27.294Z,1006.21
2022-10-22T05:53:27.300Z,1006.23
2022-10-22T05:54:29.273Z,1006.23
2022-10-22T05:55:29.260Z,1006.27
2022-10-22T05:56:29.259Z,1006.29
2022-10-22T05:57:27.239Z,1006.35
2022-10-22T05:58:27.254Z,1006.26
2022-10-22T05:59:27.233Z,1006.36
2022-10-22T06:00:27.225Z,1006.32
2022-10-22T06:01:27.200Z,1006.32
2022-10-22T06:02:27.232Z,1006.38
2022-10-22T06:03:27.173Z,1006.36
2022-10-22T06:04:27.160Z,1006.30
2022-10-22T06:05:27.157Z,1006.31
2022-10-22T06:06:29.137Z,1006.34
2022-10-22T06:07:27.128Z,1006.35
2022-10-22T06:08:27.119Z,1006.34
2022-10-22T06:09:27.206Z,1006.33
2022-10-22T06:10:27.095Z,1006.34
2022-10-22T06:11:28.915Z,1006.31
2022-10-22T06:12:27.073Z,1006.31
2022-10-22T06:13:27.058Z,1006.33
2022-10-22T06:14:27.074Z,1006.31
2022-10-22T06:15:27.036Z,1006.33
2022-10-22T06:16:27.028Z,1006.33
2022-10-22T06:17:27.020Z,1006.33
2022-10-22T06:18:27.003Z,1006.30
2022-10-22T06:19:26.997Z,1006.37
2022-10-22T06:20:26.981Z,1006.35
2022-10-22T06:21:26.976Z,1006.39
2022-10-22T06:22:26.967Z,1006.38
2022-10-22T06:23:26.946Z,1006.38
2022-10-22T06:24:26.935Z,1006.41
2022-10-22T06:25:26.923Z,1006.53
2022-10-22T06:26:26.914Z,1006.50
2022-10-22T06:27:26.901Z,1006.53
2022-10-22T06:28:26.897Z,1006.51
2022-10-22T06:29:26.877Z,1006.55
2022-10-22T06:30:26.985Z,1006.56
2022-10-22T06:31:26.863Z,1006.54
2022-10-22T06:32:26.843Z,1006.60
2022-10-22T06:33:26.834Z,1006.54
2022-10-22T06:34:26.828Z,1006.59
2022-10-22T06:35:26.809Z,1006.57
2022-10-22T06:36:26.805Z,1006.63
2022-10-22T06:37:26.794Z,1006.60
2022-10-22T06:38:26.778Z,1006.61
2022-10-22T06:39:26.764Z,1006.56
2022-10-22T06:40:26.830Z,1006.61
2022-10-22T06:41:28.783Z,1006.61
2022-10-22T06:42:26.736Z,1006.62
2022-10-22T06:43:26.722Z,1006.66
2022-10-22T06:44:26.708Z,1006.62
2022-10-22T06:45:26.698Z,1006.66
2022-10-22T06:46:26.805Z,1006.68
2022-10-22T06:47:26.675Z,1006.72
2022-10-22T06:48:26.662Z,1006.79
2022-10-22T06:49:26.653Z,1006.71
2022-10-22T06:50:26.640Z,1006.76
2022-10-22T06:51:26.663Z,1006.79
2022-10-22T06:52:26.618Z,1006.80
2022-10-22T06:53:26.617Z,1006.79
2022-10-22T06:54:26.594Z,1006.73
2022-10-22T06:55:26.584Z,1006.73
2022-10-22T06:56:26.577Z,1006.75
2022-10-22T06:57:26.559Z,1006.70
2022-10-22T06:58:26.548Z,1006.80
2022-10-22T06:59:26.536Z,1006.79
2022-10-22T07:00:26.690Z,1006.78
2022-10-22T07:01:26.605Z,1006.73
2022-10-22T07:02:26.529Z,1006.74
2022-10-22T07:03:26.508Z,1006.73
2022-10-22T07:04:26.480Z,1006.75
2022-10-22T07:05:26.471Z,1006.74
2022-10-22T07:06:26.458Z,1006.77
2022-10-22T07:07:26.468Z,1006.82
2022-10-22T07:08:26.451Z,1006.82
2022-10-22T07:09:26.422Z,1006.77
2022-10-22T07:10:29.881Z,1006.81
2022-10-22T07:11:26.404Z,1006.84
2022-10-22T07:12:26.388Z,1006.84
2022-10-22T07:13:26.377Z,1006.83
2022-10-22T07:14:26.365Z,1006.81
2022-10-22T07:15:26.358Z,1006.88
2022-10-22T07:16:29.728Z,1006.82
2022-10-22T07:17:26.416Z,1006.83
2022-10-22T07:18:26.343Z,1006.86
2022-10-22T07:19:26.309Z,1006.85
2022-10-22T07:20:26.297Z,1006.89
2022-10-22T07:21:26.289Z,1006.92
2022-10-22T07:22:26.273Z,1006.92
2022-10-22T07:23:26.267Z,1006.96
2022-10-22T07:24:26.250Z,1006.96
2022-10-22T07:25:26.242Z,1006.94
2022-10-22T07:26:26.231Z,1007.06
2022-10-22T07:27:26.221Z,1007.01
2022-10-22T07:28:26.208Z,1007.07
2022-10-22T07:29:26.193Z,1007.03
2022-10-22T07:30:26.182Z,1007.03
2022-10-22T07:31:26.171Z,1007.07
2022-10-22T07:32:26.165Z,1007.04
2022-10-22T07:33:26.155Z,1007.07
2022-10-22T07:34:26.165Z,1007.00
2022-10-22T07:35:26.127Z,1006.99
2022-10-22T07:36:26.115Z,1007.04
2022-10-22T07:37:26.105Z,1007.05
2022-10-22T07:38:26.093Z,1007.08
2022-10-22T07:39:26.092Z,1007.16
2022-10-22T07:40:26.069Z,1007.08
2022-10-22T07:41:26.060Z,1007.19
2022-10-22T07:42:26.086Z,1007.17
2022-10-22T07:43:26.037Z,1007.24
2022-10-22T07:44:26.030Z,1007.26
2022-10-22T07:45:26.020Z,1007.32
2022-10-22T07:46:26.011Z,1007.32
2022-10-22T07:47:25.993Z,1007.36
2022-10-22T07:48:25.987Z,1007.40
2022-10-22T07:49:25.970Z,1007.38
2022-10-22T07:50:25.989Z,1007.42
2022-10-22T07:51:25.947Z,1007.42
2022-10-22T07:52:25.939Z,1007.40
2022-10-22T07:53:25.931Z,1007.45
2022-10-22T07:54:25.914Z,1007.51
2022-10-22T07:55:25.902Z,1007.54
2022-10-22T07:56:25.900Z,1007.49
2022-10-22T07:57:25.883Z,1007.42
2022-10-22T07:58:25.868Z,1007.42
2022-10-22T07:59:25.860Z,1007.40
2022-10-22T08:00:25.846Z,1007.43
2022-10-22T08:01:25.917Z,1007.40
2022-10-22T08:02:25.833Z,1007.43
2022-10-22T08:03:25.813Z,1007.46
2022-10-22T08:04:25.802Z,1007.44
2022-10-22T08:05:25.791Z,1007.42
2022-10-22T08:06:25.806Z,1007.48
2022-10-22T08:08:30.454Z,1007.47
2022-10-22T08:09:25.752Z,1007.50
2022-10-22T08:10:25.737Z,1007.54
2022-10-22T08:11:25.728Z,1007.49
2022-10-22T08:12:25.719Z,1007.49
2022-10-22T08:13:25.702Z,1007.50
2022-10-22T08:14:25.690Z,1007.51
2022-10-22T08:15:25.679Z,1007.49
2022-10-22T08:16:25.673Z,1007.56
2022-10-22T08:17:25.658Z,1007.52
2022-10-22T08:18:25.650Z,1007.56
2022-10-22T08:19:25.635Z,1007.50
2022-10-22T08:20:25.623Z,1007.48
2022-10-22T08:21:25.616Z,1007.48
2022-10-22T08:22:25.624Z,1007.54
2022-10-22T08:23:27.699Z,1007.50
2022-10-22T08:24:25.580Z,1007.51
2022-10-22T08:25:25.575Z,1007.50
2022-10-22T08:26:25.556Z,1007.41
2022-10-22T08:27:25.546Z,1007.48
2022-10-22T08:28:25.535Z,1007.50
2022-10-22T08:29:25.529Z,1007.51
2022-10-22T08:30:25.516Z,1007.47
2022-10-22T08:31:25.506Z,1007.55
2022-10-22T08:33:25.479Z,1007.61
2022-10-22T08:34:25.474Z,1007.60
2022-10-22T08:35:25.460Z,1007.65
2022-10-22T08:36:25.447Z,1007.65
2022-10-22T08:37:25.443Z,1007.69
2022-10-22T08:38:25.446Z,1007.71
2022-10-22T08:39:25.423Z,1007.72
2022-10-22T08:40:25.399Z,1007.68
2022-10-22T08:41:25.390Z,1007.75
2022-10-22T08:42:25.384Z,1007.76
2022-10-22T08:43:25.368Z,1007.77
2022-10-22T08:44:25.355Z,1007.75
2022-10-22T08:45:25.345Z,1007.76
2022-10-22T08:46:25.339Z,1007.80
2022-10-22T08:47:25.325Z,1007.82
2022-10-22T08:48:25.312Z,1007.74
2022-10-22T08:49:25.300Z,1007.79
2022-10-22T08:50:25.294Z,1007.80
2022-10-22T08:51:25.279Z,1007.78
2022-10-22T08:52:25.265Z,1007.77
2022-10-22T08:53:25.255Z,1007.82
2022-10-22T08:54:25.276Z,1007.83
2022-10-22T08:55:25.243Z,1007.90
2022-10-22T08:56:25.223Z,1007.83
2022-10-22T08:57:25.262Z,1007.80
2022-10-22T08:58:25.206Z,1007.88
2022-10-22T08:59:25.196Z,1007.86
2022-10-22T09:00:25.185Z,1007.86
2022-10-22T09:01:25.173Z,1007.98
2022-10-22T09:02:25.155Z,1007.95
2022-10-22T09:03:25.144Z,1007.93
2022-10-22T09:04:25.139Z,1007.89
2022-10-22T09:05:25.120Z,1007.91
2022-10-22T09:06:25.154Z,1007.90
2022-10-22T09:07:25.106Z,1007.93
2022-10-22T09:08:25.129Z,1007.97
2022-10-22T09:09:25.079Z,1007.94
2022-10-22T09:10:25.087Z,1007.96
2022-10-22T09:11:25.056Z,1007.94
2022-10-22T09:12:25.043Z,1007.90
2022-10-22T09:13:25.138Z,1007.89
2022-10-22T09:14:25.024Z,1007.92
2022-10-22T09:15:25.008Z,1007.91
2022-10-22T09:16:24.995Z,1007.95
2022-10-22T09:17:24.985Z,1008.02
2022-10-22T09:18:24.980Z,1008.00
2022-10-22T09:19:24.962Z,1008.05
2022-10-22T09:20:24.954Z,1007.99
2022-10-22T09:21:24.940Z,1008.00
2022-10-22T09:22:24.984Z,1007.99
2022-10-22T09:23:24.918Z,1008.00
2022-10-22T09:24:25.951Z,1008.05
2022-10-22T09:25:24.899Z,1008.06
2022-10-22T09:26:24.907Z,1008.00
2022-10-22T09:27:24.871Z,1008.04
2022-10-22T09:28:24.862Z,1007.98
2022-10-22T09:29:24.849Z,1007.97
2022-10-22T09:30:24.842Z,1008.02
2022-10-22T09:31:24.829Z,1008.03
2022-10-22T09:32:24.816Z,1008.07
2022-10-22T09:33:24.934Z,1008.03
2022-10-22T09:34:24.802Z,1008.05
2022-10-22T09:35:24.786Z,1008.11
2022-10-22T09:36:24.771Z,1008.03
2022-10-22T09:37:24.766Z,1008.10
2022-10-22T09:38:24.754Z,1008.21
2022-10-22T09:39:24.742Z,1008.14
2022-10-22T09:40:24.733Z,1008.14
2022-10-22T09:41:24.714Z,1008.18
2022-10-22T09:42:24.733Z,1008.19
2022-10-22T09:43:24.693Z,1008.15
2022-10-22T09:44:24.682Z,1008.15
2022-10-22T09:45:24.670Z,1008.19
2022-10-22T09:46:24.660Z,1008.11
2022-10-22T09:47:32.656Z,1008.11
2022-10-22T09:48:24.635Z,1008.12
2022-10-22T09:49:24.632Z,1008.15
2022-10-22T09:50:24.616Z,1008.16
2022-10-22T09:51:24.606Z,1008.15
2022-10-22T09:52:24.589Z,1008.19
2022-10-22T09:53:24.587Z,1008.21
2022-10-22T09:54:24.578Z,1008.26
2022-10-22T09:55:24.563Z,1008.23
2022-10-22T09:56:24.546Z,1008.22
2022-10-22T09:57:24.537Z,1008.27
2022-10-22T09:58:24.546Z,1008.23
2022-10-22T09:59:24.512Z,1008.22
2022-10-22T10:00:24.498Z,1008.27
2022-10-22T10:01:24.495Z,1008.26
2022-10-22T10:02:38.054Z,1008.27
2022-10-22T10:03:24.526Z,1008.27
2022-10-22T10:05:24.442Z,1008.24
2022-10-22T10:06:24.428Z,1008.24
2022-10-22T10:07:24.424Z,1008.28
2022-10-22T10:08:24.405Z,1008.24
2022-10-22T10:09:24.396Z,1008.20
2022-10-22T10:10:24.392Z,1008.27
2022-10-22T10:11:28.805Z,1008.31
2022-10-22T10:12:24.361Z,1008.25
2022-10-22T10:13:24.353Z,1008.24
2022-10-22T10:14:24.370Z,1008.23
2022-10-22T10:15:24.333Z,1008.24
2022-10-22T10:16:24.318Z,1008.20
2022-10-22T10:17:24.305Z,1008.18
2022-10-22T10:18:24.299Z,1008.23
2022-10-22T10:19:24.280Z,1008.22
2022-10-22T10:20:24.272Z,1008.31
2022-10-22T10:21:24.273Z,1008.24
2022-10-22T10:22:24.252Z,1008.30
2022-10-22T10:23:25.333Z,1008.34
2022-10-22T10:24:24.224Z,1008.27
2022-10-22T10:25:24.218Z,1008.28
2022-10-22T10:26:24.201Z,1008.30
2022-10-22T10:27:24.196Z,1008.29
2022-10-22T10:28:24.184Z,1008.19
2022-10-22T10:29:24.218Z,1008.24
2022-10-22T10:30:24.195Z,1008.25
2022-10-22T10:31:24.145Z,1008.29
2022-10-22T10:32:24.548Z,1008.28
2022-10-22T10:33:24.120Z,1008.34
2022-10-22T10:34:24.113Z,1008.26
2022-10-22T10:35:24.102Z,1008.26
2022-10-22T10:36:24.095Z,1008.25
2022-10-22T10:37:24.076Z,1008.27
2022-10-22T10:38:27.270Z,1008.25
2022-10-22T10:39:24.060Z,1008.29
2022-10-22T10:40:24.050Z,1008.27
2022-10-22T10:41:24.054Z,1008.21
2022-10-22T10:42:24.027Z,1008.28
2022-10-22T10:43:24.007Z,1008.26
2022-10-22T10:44:24.005Z,1008.27
2022-10-22T10:45:23.985Z,1008.16
2022-10-22T10:46:24.005Z,1008.25
2022-10-22T10:47:23.965Z,1008.28
2022-10-22T10:48:23.950Z,1008.24
2022-10-22T10:49:23.939Z,1008.25
2022-10-22T10:50:23.928Z,1008.18
2022-10-22T10:51:23.921Z,1008.22
2022-10-22T10:52:23.915Z,1008.20
2022-10-22T10:53:23.893Z,1008.19
2022-10-22T10:54:23.889Z,1008.28
2022-10-22T10:55:23.874Z,1008.28
2022-10-22T10:56:23.860Z,1008.31
2022-10-22T10:57:23.851Z,1008.30
2022-10-22T10:58:23.837Z,1008.25
2022-10-22T10:59:23.833Z,1008.32
2022-10-22T11:00:23.815Z,1008.37
2022-10-22T11:01:23.877Z,1008.38
2022-10-22T11:02:23.817Z,1008.41
2022-10-22T11:03:23.787Z,1008.35
2022-10-22T11:04:23.771Z,1008.28
2022-10-22T11:05:23.770Z,1008.38
2022-10-22T11:06:25.564Z,1008.42
2022-10-22T11:07:34.148Z,1008.35
2022-10-22T11:08:23.728Z,1008.32
2022-10-22T11:09:23.718Z,1008.34
2022-10-22T11:10:23.712Z,1008.28
2022-10-22T11:11:23.695Z,1008.31
2022-10-22T11:12:23.689Z,1008.30
2022-10-22T11:13:23.671Z,1008.30
2022-10-22T11:14:25.328Z,1008.28
2022-10-22T11:15:23.649Z,1008.25
2022-10-22T11:16:23.638Z,1008.31
2022-10-22T11:17:23.631Z,1008.20
2022-10-22T11:18:23.654Z,1008.25
2022-10-22T11:19:46.147Z,1008.20
2022-10-22T11:20:23.600Z,1008.21
2022-10-22T11:21:23.582Z,1008.26
2022-10-22T11:22:26.722Z,1008.20
2022-10-22T11:23:23.908Z,1008.27
2022-10-22T11:24:23.554Z,1008.26
2022-10-22T11:25:23.540Z,1008.27
2022-10-22T11:26:23.527Z,1008.29
2022-10-22T11:27:23.529Z,1008.32
2022-10-22T11:28:23.504Z,1008.30
2022-10-22T11:29:23.497Z,1008.30
2022-10-22T11:30:23.480Z,1008.31
2022-10-22T11:31:23.469Z,1008.21
2022-10-22T11:32:23.456Z,1008.21
2022-10-22T11:33:23.446Z,1008.22
2022-10-22T11:34:35.804Z,1008.24
2022-10-22T11:35:25.828Z,1008.25
2022-10-22T11:36:23.465Z,1008.21
2022-10-22T11:37:23.401Z,1008.24
2022-10-22T11:38:23.389Z,1008.25
2022-10-22T11:39:23.382Z,1008.28
2022-10-22T11:40:23.365Z,1008.30
2022-10-22T11:41:23.357Z,1008.26
2022-10-22T11:42:23.342Z,1008.32
2022-10-22T11:43:23.336Z,1008.29
2022-10-22T11:44:23.327Z,1008.24
2022-10-22T11:45:23.308Z,1008.33
2022-10-22T11:46:23.300Z,1008.27
2022-10-22T11:47:23.287Z,1008.25
2022-10-22T11:48:23.275Z,1008.25
2022-10-22T11:49:23.267Z,1008.31
2022-10-22T11:50:23.278Z,1008.26
2022-10-22T11:51:23.250Z,1008.27
2022-10-22T11:52:23.230Z,1008.24
2022-10-22T11:53:23.219Z,1008.30
2022-10-22T11:54:23.213Z,1008.27
2022-10-22T11:55:23.198Z,1008.29
2022-10-22T11:56:23.189Z,1008.27
2022-10-22T11:57:23.175Z,1008.37
2022-10-22T11:58:23.171Z,1008.30
2022-10-22T11:59:23.153Z,1008.26
2022-10-22T12:00:23.142Z,1008.27
2022-10-22T12:01:23.233Z,1008.29
2022-10-22T12:02:23.123Z,1008.26
2022-10-22T12:03:23.108Z,1008.26
2022-10-22T12:04:23.201Z,1008.33
2022-10-22T12:05:23.089Z,1008.28
2022-10-22T12:06:23.106Z,1008.24
2022-10-22T12:07:23.064Z,1008.28
2022-10-22T12:08:23.053Z,1008.24